| Date | Time | Temp. (oF) | Dew Point (oF) | Rel. Hum. (%) | Press. (in.) | Wind Dir. | Wind Speed (mph) | Hourly Rainfall (in.) |
|
|---|---|---|---|---|---|---|---|---|---|
| 1 | 09/19 | 00:00 | 68 | 66 | 94 | 29.81 | WNW | 1 | 0.00 |
| 2 | 09/18 | 23:00 | 69 | 66 | 91 | 29.81 | WNW | 1 | 0.00 |
| 3 | 09/18 | 22:00 | 71 | 66 | 85 | 29.81 | WNW | 1 | 0.00 |
| 4 | 09/18 | 21:00 | 73 | 66 | 79 | 29.81 | WNW | 1 | 0.00 |
| 5 | 09/18 | 20:00 | 76 | 67 | 75 | 29.79 | WNW | 2 | 0.00 |
| 6 | 09/18 | 19:00 | 79 | 67 | 67 | 29.77 | WNW | 3 | 0.00 |
| 7 | 09/18 | 18:00 | 82 | 66 | 60 | 29.73 | NW | 11 | 0.00 |
| 8 | 09/18 | 17:00 | 83 | 67 | 60 | 29.73 | NW | 7 | 0.00 |
| 9 | 09/18 | 16:00 | 83 | 70 | 66 | 29.73 | NW | 5 | 0.00 |
| 10 | 09/18 | 15:00 | 81 | 70 | 70 | 29.75 | WSW | 4 | 0.00 |
| 11 | 09/18 | 14:00 | 78 | 70 | 77 | 29.75 | N | 13 | 0.00 |
| 12 | 09/18 | 13:00 | 77 | 70 | 80 | 29.76 | NW | 7 | 0.00 |
| 13 | 09/18 | 12:00 | 78 | 73 | 87 | 29.75 | WNW | 3 | 0.00 |
| 14 | 09/18 | 11:00 | 78 | 76 | 94 | 29.74 | NW | 3 | 0.01 |
| 15 | 09/18 | 10:00 | 78 | 76 | 96 | 29.75 | S | 3 | 0.00 |
| 16 | 09/18 | 09:00 | 77 | 76 | 97 | 29.75 | S | 4 | 0.00 |
| 17 | 09/18 | 08:00 | 76 | 75 | 98 | 29.75 | S | 4 | 0.00 |
| 18 | 09/18 | 07:00 | 75 | 74 | 98 | 29.75 | S | 1 | 0.00 |
| 19 | 09/18 | 06:00 | 75 | 74 | 98 | 29.76 | SSE | 4 | 0.00 |
| 20 | 09/18 | 05:00 | 75 | 74 | 97 | 29.75 | SSW | 4 | 0.00 |
| 21 | 09/18 | 04:00 | 76 | 75 | 98 | 29.76 | SSE | 4 | 0.00 |
| 22 | 09/18 | 03:00 | 76 | 75 | 98 | 29.77 | S | 1 | 0.02 |
| 23 | 09/18 | 02:00 | 76 | 75 | 98 | 29.79 | SSE | 1 | 0.07 |
| 24 | 09/18 | 01:00 | 76 | 75 | 97 | 29.80 | SSE | 3 | 0.00 |